createdAt,value
2018-09-04T00:00:32.880Z,101320.25
2018-09-04T00:03:01.553Z,101326.06
2018-09-04T00:05:30.200Z,101323.05
2018-09-04T00:07:58.802Z,101318.94
2018-09-04T00:10:27.895Z,101324.69
2018-09-04T00:12:56.505Z,101325.53
2018-09-04T00:15:25.219Z,101326.06
2018-09-04T00:17:53.811Z,101324.16
2018-09-04T00:20:22.626Z,101322.50
2018-09-04T00:22:51.243Z,101320.84
2018-09-04T00:25:19.971Z,101320.02
2018-09-04T00:27:49.064Z,101315.36
2018-09-04T00:30:17.694Z,101320.86
2018-09-04T00:32:46.348Z,101319.20
2018-09-04T00:35:15.323Z,101317.83
2018-09-04T00:37:43.988Z,101310.95
2018-09-04T00:40:12.678Z,101311.25
2018-09-04T00:42:41.316Z,101310.44
2018-09-04T00:45:10.205Z,101311.80
2018-09-04T00:47:38.856Z,101310.98
2018-09-04T00:50:07.812Z,101313.98
2018-09-04T00:52:36.424Z,101313.17
2018-09-04T00:55:05.551Z,101311.25
2018-09-04T00:57:34.284Z,101309.05
2018-09-04T01:00:03.278Z,101308.77
2018-09-04T01:02:31.912Z,101309.05
2018-09-04T01:05:00.562Z,101314.52
2018-09-04T01:07:29.226Z,101314.48
2018-09-04T01:09:57.901Z,101319.42
2018-09-04T01:12:26.504Z,101325.37
2018-09-04T01:14:57.281Z,101316.86
2018-09-04T01:17:26.211Z,101315.53
2018-09-04T01:19:55.253Z,101316.68
2018-09-04T01:22:24.011Z,101322.93
2018-09-04T01:24:52.666Z,101324.59
2018-09-04T01:27:21.312Z,101322.75
2018-09-04T01:29:49.891Z,101318.89
2018-09-04T01:32:18.560Z,101317.80
2018-09-04T01:34:47.149Z,101313.72
2018-09-04T01:37:16.431Z,101313.42
2018-09-04T01:39:45.095Z,101315.34
2018-09-04T01:42:13.734Z,101314.52
2018-09-04T01:44:42.309Z,101318.05
2018-09-04T01:49:37.145Z,101319.17
2018-09-04T01:52:05.836Z,101316.97
2018-09-04T01:54:34.431Z,101319.97
2018-09-04T01:57:03.764Z,101317.98
2018-09-04T01:59:32.506Z,101316.56
2018-09-04T02:02:01.136Z,101309.16
2018-09-04T02:04:31.945Z,101310.53
2018-09-04T02:07:00.658Z,101302.89
2018-09-04T02:09:29.397Z,101300.70
2018-09-04T02:11:57.994Z,101294.13
2018-09-04T02:14:26.653Z,101293.30
2018-09-04T02:16:55.246Z,101296.04
2018-09-04T02:19:23.867Z,101302.61
2018-09-04T02:21:52.522Z,101305.89
2018-09-04T02:24:21.142Z,101305.89
2018-09-04T02:26:49.807Z,101299.03
2018-09-04T02:29:18.844Z,101300.15
2018-09-04T02:31:47.771Z,101299.86
2018-09-04T02:34:17.661Z,101301.52
2018-09-04T02:36:46.270Z,101291.67
2018-09-04T02:39:14.955Z,101296.05
2018-09-04T02:41:43.587Z,101290.84
2018-09-04T02:44:12.248Z,101285.61
2018-09-04T02:46:40.835Z,101291.64
2018-09-04T02:49:09.519Z,101294.37
2018-09-04T02:51:38.183Z,101289.14
2018-09-04T02:54:06.914Z,101290.80
2018-09-04T02:56:35.538Z,101290.51
2018-09-04T02:59:04.266Z,101289.96
2018-09-04T03:01:33.178Z,101291.30
2018-09-04T03:04:01.876Z,101292.41
2018-09-04T03:06:30.548Z,101299.52
2018-09-04T03:08:59.169Z,101299.51
2018-09-04T03:11:27.851Z,101293.19
2018-09-04T03:13:56.593Z,101290.98
2018-09-04T03:16:25.180Z,101286.31
2018-09-04T03:18:53.888Z,101282.16
2018-09-04T03:21:23.955Z,101282.69
2018-09-04T03:23:52.683Z,101281.60
2018-09-04T03:26:21.293Z,101272.80
2018-09-04T03:28:49.932Z,101270.59
2018-09-04T03:31:20.757Z,101271.95
2018-09-04T03:33:49.476Z,101275.50
2018-09-04T03:36:18.108Z,101280.92
2018-09-04T03:38:46.754Z,101275.73
2018-09-04T03:41:15.386Z,101274.90
2018-09-04T03:43:44.042Z,101280.38
2018-09-04T03:46:12.675Z,101278.16
2018-09-04T03:48:41.492Z,101277.28
2018-09-04T03:51:10.210Z,101281.63
2018-09-04T03:53:38.831Z,101278.57
2018-09-04T03:56:07.885Z,101271.16
2018-09-04T03:58:36.534Z,101269.78
2018-09-04T04:01:05.168Z,101275.20
2018-09-04T04:03:33.888Z,101273.81
2018-09-04T04:06:02.533Z,101278.78
2018-09-04T04:08:31.148Z,101280.94
2018-09-04T04:10:59.789Z,101284.14
2018-09-04T04:13:28.403Z,101289.36
2018-09-04T04:15:57.023Z,101282.48
2018-09-04T04:18:25.642Z,101284.63
2018-09-04T04:20:59.877Z,101280.75
2018-09-04T04:23:29.495Z,101281.55
2018-09-04T04:25:59.904Z,101283.98
2018-09-04T04:28:28.528Z,101282.60
2018-09-04T04:30:57.205Z,101282.80
2018-09-04T04:33:25.826Z,101278.94
2018-09-04T04:35:54.488Z,101283.55
2018-09-04T04:38:23.674Z,101288.44
2018-09-04T04:40:52.262Z,101291.98
2018-09-04T04:43:20.852Z,101298.81
2018-09-04T04:45:49.490Z,101292.52
2018-09-04T04:48:18.207Z,101293.31
2018-09-04T04:50:46.807Z,101297.14
2018-09-04T04:53:15.430Z,101296.30
2018-09-04T04:55:44.053Z,101292.72
2018-09-04T04:58:12.668Z,101297.41
2018-09-04T05:00:41.343Z,101303.40
2018-09-04T05:03:10.098Z,101307.54
2018-09-04T05:05:38.744Z,101307.00
2018-09-04T05:08:07.345Z,101318.67
2018-09-04T05:10:36.068Z,101320.66
2018-09-04T05:13:05.071Z,101321.19
2018-09-04T05:15:33.743Z,101311.11
2018-09-04T05:18:02.388Z,101310.83
2018-09-04T05:20:31.126Z,101309.53
2018-09-04T05:22:59.785Z,101310.92
2018-09-04T05:25:28.520Z,101313.98
2018-09-04T05:27:57.154Z,101309.91
2018-09-04T05:30:25.937Z,101314.27
2018-09-04T05:32:59.760Z,101317.81
2018-09-04T05:35:32.344Z,101321.67
2018-09-04T05:38:00.982Z,101331.83
2018-09-04T05:40:29.606Z,101327.52
2018-09-04T05:43:01.270Z,101328.88
2018-09-04T05:45:31.212Z,101332.97
2018-09-04T05:48:03.347Z,101333.52
2018-09-04T05:50:32.092Z,101334.93
2018-09-04T05:53:01.065Z,101332.84
2018-09-04T05:55:29.679Z,101338.42
2018-09-04T05:57:58.330Z,101339.81
2018-09-04T06:00:29.907Z,101344.78
2018-09-04T06:02:58.514Z,101347.08
2018-09-04T06:05:27.175Z,101343.25
2018-09-04T06:07:55.791Z,101342.73
2018-09-04T06:10:24.507Z,101348.49
2018-09-04T06:12:53.140Z,101339.55
2018-09-04T06:15:21.827Z,101341.25
2018-09-04T06:17:50.458Z,101339.37
2018-09-04T06:20:19.090Z,101341.06
2018-09-04T06:22:48.074Z,101337.03
2018-09-04T06:25:16.683Z,101337.58
2018-09-04T06:27:45.401Z,101340.94
2018-09-04T06:30:14.373Z,101348.61
2018-09-04T06:32:42.971Z,101347.02
2018-09-04T06:35:11.704Z,101340.45
2018-09-04T06:37:40.303Z,101338.49
2018-09-04T06:40:09.173Z,101347.06
2018-09-04T06:42:37.840Z,101345.70
2018-09-04T06:45:06.873Z,101352.05
2018-09-04T06:47:35.514Z,101344.69
2018-09-04T06:50:04.237Z,101348.84
2018-09-04T06:52:32.882Z,101352.41
2018-09-04T06:55:02.171Z,101350.75
2018-09-04T06:57:30.821Z,101354.06
2018-09-04T06:59:59.465Z,101354.89
2018-09-04T07:02:28.138Z,101360.38
2018-09-04T07:04:56.786Z,101360.38
2018-09-04T07:07:25.616Z,101361.23
2018-09-04T07:09:54.274Z,101359.28
2018-09-04T07:12:22.864Z,101364.27
2018-09-04T07:14:51.840Z,101365.36
2018-09-04T07:17:20.493Z,101363.13
2018-09-04T07:19:49.126Z,101370.82
2018-09-04T07:22:17.758Z,101365.86
2018-09-04T07:24:46.407Z,101366.67
2018-09-04T07:27:15.030Z,101363.84
2018-09-04T07:29:43.678Z,101364.71
2018-09-04T07:32:12.396Z,101374.55
2018-09-04T07:34:41.027Z,101377.48
2018-09-04T07:37:09.669Z,101374.70
2018-09-04T07:39:38.386Z,101376.88
2018-09-04T07:42:07.351Z,101379.45
2018-09-04T07:44:35.982Z,101382.77
2018-09-04T07:47:04.738Z,101377.42
2018-09-04T07:49:33.357Z,101384.47
2018-09-04T07:52:02.043Z,101387.18
2018-09-04T07:54:30.675Z,101382.02
2018-09-04T07:56:59.371Z,101385.75
2018-09-04T07:59:27.999Z,101381.91
2018-09-04T08:01:56.628Z,101384.22
2018-09-04T08:04:25.344Z,101375.70
2018-09-04T08:06:53.949Z,101371.08
2018-09-04T08:09:22.788Z,101378.56
2018-09-04T08:11:51.453Z,101384.38
2018-09-04T08:14:20.180Z,101379.86
2018-09-04T08:16:48.846Z,101375.79
2018-09-04T08:19:17.500Z,101376.42
2018-09-04T08:21:46.134Z,101376.09
2018-09-04T08:24:14.833Z,101379.55
2018-09-04T08:26:43.489Z,101382.52
2018-09-04T08:29:12.108Z,101384.82
2018-09-04T08:31:40.731Z,101388.08
2018-09-04T08:34:10.047Z,101381.34
2018-09-04T08:36:38.778Z,101375.75
2018-09-04T08:39:08.758Z,101379.78
2018-09-04T08:41:37.382Z,101384.67
2018-09-04T08:44:06.438Z,101382.66
2018-09-04T08:46:35.102Z,101385.19
2018-09-04T08:49:03.808Z,101384.05
2018-09-04T08:51:32.802Z,101384.62
2018-09-04T08:54:01.531Z,101381.35
2018-09-04T08:56:30.160Z,101388.08
2018-09-04T08:58:58.808Z,101385.45
2018-09-04T09:01:27.480Z,101384.85
2018-09-04T09:03:56.304Z,101381.31
2018-09-04T09:06:24.949Z,101381.59
2018-09-04T09:08:53.592Z,101382.67
2018-09-04T09:11:22.229Z,101385.28
2018-09-04T09:13:50.885Z,101385.14
2018-09-04T09:16:19.580Z,101386.37
2018-09-04T09:18:48.248Z,101386.21
2018-09-04T09:21:16.940Z,101375.20
2018-09-04T09:23:45.646Z,101382.07
2018-09-04T09:26:14.249Z,101386.61
2018-09-04T09:28:42.849Z,101379.48
2018-09-04T09:31:11.492Z,101384.86
2018-09-04T09:33:40.706Z,101391.40
2018-09-04T09:36:09.688Z,101381.19
2018-09-04T09:38:38.291Z,101379.64
2018-09-04T09:41:07.012Z,101377.92
2018-09-04T09:43:35.645Z,101377.31
2018-09-04T09:46:04.258Z,101372.72
2018-09-04T09:48:38.135Z,101373.91
2018-09-04T09:51:07.146Z,101376.23
2018-09-04T09:53:36.079Z,101372.66
2018-09-04T09:56:04.604Z,101371.45
2018-09-04T09:58:33.242Z,101374.05
2018-09-04T10:01:07.208Z,101374.43
2018-09-04T10:03:41.128Z,101369.52
2018-09-04T10:06:09.814Z,101373.80
2018-09-04T10:08:38.514Z,101369.21
2018-09-04T10:11:07.588Z,101368.52
2018-09-04T10:13:36.095Z,101368.92
2018-09-04T10:16:04.806Z,101366.44
2018-09-04T10:18:33.427Z,101365.83
2018-09-04T10:21:02.125Z,101359.58
2018-09-04T10:23:30.872Z,101361.56
2018-09-04T10:25:59.576Z,101360.94
2018-09-04T10:28:28.212Z,101358.25
2018-09-04T10:30:57.077Z,101357.63
2018-09-04T10:33:25.725Z,101361.25
2018-09-04T10:35:54.406Z,101366.53
2018-09-04T10:38:25.390Z,101362.61
2018-09-04T10:40:55.604Z,101361.46
2018-09-04T10:43:28.411Z,101355.78
2018-09-04T10:46:15.838Z,101349.31
2018-09-04T10:48:44.501Z,101341.17
2018-09-04T10:51:13.152Z,101343.95
2018-09-04T10:53:41.803Z,101349.04
2018-09-04T10:56:10.490Z,101346.69
2018-09-04T10:58:39.237Z,101346.99
2018-09-04T11:01:07.957Z,101351.33
2018-09-04T11:03:37.861Z,101347.17
2018-09-04T11:06:06.520Z,101351.78
2018-09-04T11:08:35.204Z,101345.83
2018-09-04T11:11:03.878Z,101342.94
2018-09-04T11:13:32.548Z,101344.28
2018-09-04T11:16:01.224Z,101345.77
2018-09-04T11:18:30.133Z,101341.29
2018-09-04T11:20:58.865Z,101334.41
2018-09-04T11:23:27.552Z,101334.34
2018-09-04T11:25:56.143Z,101343.14
2018-09-04T11:28:24.787Z,101335.20
2018-09-04T11:30:53.376Z,101334.13
2018-09-04T11:33:22.148Z,101335.30
2018-09-04T11:35:51.190Z,101330.29
2018-09-04T11:38:19.884Z,101334.28
2018-09-04T11:40:48.602Z,101333.94
2018-09-04T11:43:17.239Z,101337.05
2018-09-04T11:45:45.884Z,101331.93
2018-09-04T11:48:17.416Z,101331.06
2018-09-04T11:50:46.217Z,101329.56
2018-09-04T11:53:14.876Z,101326.08
2018-09-04T11:55:43.517Z,101321.88
2018-09-04T11:58:12.183Z,101323.64
2018-09-04T12:00:43.287Z,101326.16
2018-09-04T12:03:13.460Z,101323.12
2018-09-04T12:05:42.464Z,101321.07
2018-09-04T12:08:11.150Z,101323.30
2018-09-04T12:10:40.392Z,101315.10
2018-09-04T12:13:09.168Z,101323.94
2018-09-04T12:15:41.055Z,101318.95
2018-09-04T12:18:10.753Z,101325.95
2018-09-04T12:21:11.628Z,101320.70
2018-09-04T12:23:40.991Z,101323.00
2018-09-04T12:26:11.256Z,101322.41
2018-09-04T12:28:39.939Z,101323.77
2018-09-04T12:31:09.302Z,101318.36
2018-09-04T12:33:37.994Z,101322.55
2018-09-04T12:36:07.541Z,101318.53
2018-09-04T12:38:37.886Z,101318.48
2018-09-04T12:41:11.575Z,101320.22
2018-09-04T12:43:40.383Z,101331.59
2018-09-04T12:46:09.032Z,101324.59
2018-09-04T12:48:37.766Z,101328.40
2018-09-04T12:51:07.364Z,101316.33
2018-09-04T12:53:35.985Z,101331.44
2018-09-04T12:56:04.635Z,101321.95
2018-09-04T12:58:33.247Z,101317.36
2018-09-04T13:01:01.922Z,101318.09
2018-09-04T13:03:30.655Z,101319.91
2018-09-04T13:05:59.584Z,101314.23
2018-09-04T13:08:30.632Z,101321.56
2018-09-04T13:10:59.264Z,101318.09
2018-09-04T13:13:28.203Z,101316.16
2018-09-04T13:15:58.378Z,101309.30
2018-09-04T13:18:27.948Z,101306.83
2018-09-04T13:21:01.270Z,101308.85
2018-09-04T13:23:30.348Z,101301.81
2018-09-04T13:25:59.062Z,101310.09
2018-09-04T13:28:28.310Z,101299.48
2018-09-04T13:30:56.976Z,101307.08
2018-09-04T13:33:25.667Z,101309.03
2018-09-04T13:35:54.363Z,101303.67
2018-09-04T13:38:23.057Z,101301.17
2018-09-04T13:40:56.872Z,101297.77
2018-09-04T13:43:25.581Z,101295.02
2018-09-04T13:45:54.284Z,101295.25
2018-09-04T13:48:28.000Z,101299.14
2018-09-04T13:50:56.803Z,101297.83
2018-09-04T13:53:25.559Z,101300.08
2018-09-04T13:55:54.601Z,101292.08
2018-09-04T13:58:23.342Z,101303.20
2018-09-04T14:00:51.972Z,101301.19
2018-09-04T14:03:20.711Z,101311.37
2018-09-04T14:05:49.319Z,101309.21
2018-09-04T14:08:18.021Z,101301.95
2018-09-04T14:10:46.711Z,101306.08
2018-09-04T14:13:15.676Z,101308.98
2018-09-04T14:15:44.363Z,101308.16
2018-09-04T14:18:13.020Z,101301.33
2018-09-04T14:20:41.789Z,101303.89
2018-09-04T14:23:10.463Z,101304.78
2018-09-04T14:25:39.301Z,101302.22
2018-09-04T14:28:07.782Z,101296.14
2018-09-04T14:30:36.791Z,101295.33
2018-09-04T14:33:05.532Z,101294.81
2018-09-04T14:35:34.229Z,101299.23
2018-09-04T14:38:02.949Z,101295.05
2018-09-04T14:40:31.598Z,101294.27
2018-09-04T14:43:00.442Z,101302.55
2018-09-04T14:45:29.092Z,101296.12
2018-09-04T14:47:57.770Z,101299.11
2018-09-04T14:50:26.427Z,101301.34
2018-09-04T14:52:55.099Z,101294.66
2018-09-04T14:55:23.796Z,101305.13
2018-09-04T14:57:52.571Z,101300.38
2018-09-04T15:00:21.239Z,101292.19
2018-09-04T15:02:49.917Z,101292.15
2018-09-04T15:05:18.572Z,101296.52
2018-09-04T15:07:47.416Z,101297.12
2018-09-04T15:10:16.089Z,101287.72
2018-09-04T15:12:44.917Z,101291.12
2018-09-04T15:15:13.823Z,101287.37
2018-09-04T15:17:42.765Z,101287.30
2018-09-04T15:20:11.480Z,101290.71
2018-09-04T15:22:40.171Z,101292.77
2018-09-04T15:25:08.869Z,101285.77
2018-09-04T15:27:37.595Z,101282.05
2018-09-04T15:30:06.781Z,101286.12
2018-09-04T15:32:35.600Z,101282.84
2018-09-04T15:35:04.328Z,101287.79
2018-09-04T15:37:32.971Z,101282.67
2018-09-04T15:40:01.703Z,101285.94
2018-09-04T15:42:30.422Z,101283.47
2018-09-04T15:44:59.099Z,101273.54
2018-09-04T15:47:28.054Z,101283.18
2018-09-04T15:49:57.137Z,101284.56
2018-09-04T15:52:25.770Z,101283.19
2018-09-04T15:54:54.460Z,101288.36
2018-09-04T15:57:23.072Z,101286.11
2018-09-04T15:59:51.723Z,101279.84
2018-09-04T16:02:20.412Z,101286.77
2018-09-04T16:04:49.258Z,101288.69
2018-09-04T16:07:17.915Z,101287.08
2018-09-04T16:09:46.659Z,101288.97
2018-09-04T16:12:15.380Z,101291.36
2018-09-04T16:14:44.068Z,101286.95
2018-09-04T16:17:13.025Z,101287.11
2018-09-04T16:19:41.936Z,101294.37
2018-09-04T16:22:10.831Z,101298.28
2018-09-04T16:24:39.605Z,101298.13
2018-09-04T16:27:08.387Z,101295.95
2018-09-04T16:29:37.056Z,101291.95
2018-09-04T16:32:05.906Z,101290.70
2018-09-04T16:34:34.763Z,101297.64
2018-09-04T16:37:03.503Z,101298.78
2018-09-04T16:39:32.272Z,101293.92
2018-09-04T16:42:00.909Z,101296.62
2018-09-04T16:44:29.604Z,101295.76
2018-09-04T16:46:58.338Z,101295.24
2018-09-04T16:49:27.864Z,101296.62
2018-09-04T16:51:58.307Z,101295.50
2018-09-04T16:54:27.361Z,101292.13
2018-09-04T16:56:56.125Z,101289.62
2018-09-04T16:59:24.765Z,101289.85
2018-09-04T17:01:55.820Z,101289.72
2018-09-04T17:04:24.736Z,101300.51
2018-09-04T17:06:53.443Z,101298.37
2018-09-04T17:09:22.101Z,101305.47
2018-09-04T17:11:51.138Z,101302.21
2018-09-04T17:14:19.813Z,101297.07
2018-09-04T17:16:48.459Z,101306.55
2018-09-04T17:19:17.136Z,101310.06
2018-09-04T17:21:45.827Z,101317.06
2018-09-04T17:24:14.526Z,101315.48
2018-09-04T17:26:43.169Z,101316.69
2018-09-04T17:29:12.071Z,101318.08
2018-09-04T17:31:40.906Z,101323.03
2018-09-04T17:34:09.604Z,101324.55
2018-09-04T17:36:38.272Z,101324.81
2018-09-04T17:39:08.338Z,101326.33
2018-09-04T17:41:37.072Z,101326.88
2018-09-04T17:44:06.380Z,101323.75
2018-09-04T17:46:35.625Z,101325.33
2018-09-04T17:49:04.282Z,101333.13
2018-09-04T17:51:33.014Z,101327.37
2018-09-04T17:54:01.729Z,101329.38
2018-09-04T17:56:30.708Z,101334.95
2018-09-04T17:59:00.099Z,101333.38
2018-09-04T18:01:29.393Z,101338.50
2018-09-04T18:03:58.375Z,101336.78
2018-09-04T18:06:27.012Z,101348.57
2018-09-04T18:08:55.987Z,101344.42
2018-09-04T18:11:24.737Z,101350.38
2018-09-04T18:13:54.072Z,101349.03
2018-09-04T18:16:22.995Z,101352.95
2018-09-04T18:18:51.885Z,101357.88
2018-09-04T18:21:20.535Z,101357.49
2018-09-04T18:23:49.471Z,101357.16
2018-09-04T18:26:18.189Z,101361.41
2018-09-04T18:28:47.015Z,101362.59
2018-09-04T18:31:15.877Z,101361.44
2018-09-04T18:33:44.710Z,101361.86
2018-09-04T18:36:13.560Z,101362.17
2018-09-04T18:38:42.419Z,101370.55
2018-09-04T18:41:11.165Z,101372.23
2018-09-04T18:43:39.835Z,101369.99
2018-09-04T18:46:08.935Z,101374.58
2018-09-04T18:48:37.872Z,101374.44
2018-09-04T18:51:06.580Z,101375.20
2018-09-04T18:53:38.452Z,101385.62
2018-09-04T18:56:07.204Z,101376.83
2018-09-04T18:58:35.966Z,101382.34
2018-09-04T19:01:04.693Z,101381.27
2018-09-04T19:03:33.401Z,101391.30
2018-09-04T19:06:13.641Z,101386.36
2018-09-04T19:08:42.338Z,101394.66
2018-09-04T19:11:11.050Z,101388.26
2018-09-04T19:13:40.282Z,101391.17
2018-09-04T19:16:08.965Z,101394.75
2018-09-04T19:18:37.711Z,101398.36
2018-09-04T19:21:06.883Z,101390.95
2018-09-04T19:23:35.948Z,101403.66
2018-09-04T19:26:04.901Z,101401.03
2018-09-04T19:28:33.610Z,101406.52
2018-09-04T19:31:02.681Z,101404.14
2018-09-04T19:33:31.410Z,101414.14
2018-09-04T19:36:01.443Z,101414.17
2018-09-04T19:38:30.214Z,101407.55
2018-09-04T19:40:58.922Z,101414.48
2018-09-04T19:43:27.706Z,101416.63
2018-09-04T19:45:56.726Z,101413.36
2018-09-04T19:48:25.441Z,101414.22
2018-09-04T19:50:54.198Z,101409.55
2018-09-04T19:53:22.982Z,101412.59
2018-09-04T19:55:52.615Z,101413.16
2018-09-04T19:58:21.384Z,101412.91
2018-09-04T20:00:50.395Z,101417.34
2018-09-04T20:03:19.314Z,101417.98
2018-09-04T20:05:48.003Z,101422.95
2018-09-04T20:08:16.697Z,101421.91
2018-09-04T20:10:45.321Z,101422.77
2018-09-04T20:13:14.417Z,101421.73
2018-09-04T20:15:43.035Z,101427.81
2018-09-04T20:18:11.718Z,101428.64
2018-09-04T20:20:40.446Z,101430.58
2018-09-04T20:23:09.375Z,101437.20
2018-09-04T20:25:38.069Z,101434.20
2018-09-04T20:30:34.404Z,101441.94
2018-09-04T20:33:03.158Z,101447.41
2018-09-04T20:35:31.849Z,101440.29
2018-09-04T20:38:00.519Z,101447.98
2018-09-04T20:40:29.179Z,101450.97
2018-09-04T20:42:58.171Z,101446.86
2018-09-04T20:45:26.823Z,101446.34
2018-09-04T20:47:55.716Z,101449.38
2018-09-04T20:50:25.041Z,101450.49
2018-09-04T20:52:53.671Z,101447.18
2018-09-04T20:55:22.275Z,101448.84
2018-09-04T20:58:01.903Z,101453.54
2018-09-04T21:00:41.788Z,101448.59
2018-09-04T21:03:21.803Z,101449.69
2018-09-04T21:06:03.821Z,101446.39
2018-09-04T21:10:53.156Z,101449.41
2018-09-04T21:13:21.866Z,101453.80
2018-09-04T21:15:50.550Z,101456.27
2018-09-04T21:18:19.226Z,101465.84
2018-09-04T21:20:47.941Z,101465.02
2018-09-04T21:23:16.771Z,101470.77
2018-09-04T21:25:46.510Z,101468.85
2018-09-04T21:28:15.155Z,101464.73
2018-09-04T21:30:43.754Z,101461.16
2018-09-04T21:33:12.808Z,101460.07
2018-09-04T21:35:41.748Z,101458.16
2018-09-04T21:38:12.768Z,101463.10
2018-09-04T21:40:41.407Z,101457.33
2018-09-04T21:43:10.024Z,101465.81
2018-09-04T21:45:38.638Z,101466.36
2018-09-04T21:48:10.097Z,101464.69
2018-09-04T21:50:38.811Z,101469.89
2018-09-04T21:53:07.671Z,101471.55
2018-09-04T21:55:36.294Z,101474.84
2018-09-04T21:58:04.964Z,101478.97
2018-09-04T22:00:33.670Z,101475.97
2018-09-04T22:03:02.292Z,101481.70
2018-09-04T22:05:30.918Z,101475.95
2018-09-04T22:07:59.565Z,101470.73
2018-09-04T22:10:28.487Z,101473.17
2018-09-04T22:12:57.292Z,101474.78
2018-09-04T22:15:25.912Z,101476.70
2018-09-04T22:17:54.658Z,101474.48
2018-09-04T22:20:23.384Z,101479.96
2018-09-04T22:22:52.000Z,101480.75
2018-09-04T22:25:20.720Z,101485.13
2018-09-04T22:27:49.380Z,101486.45
2018-09-04T22:30:18.139Z,101482.54
2018-09-04T22:32:46.775Z,101485.53
2018-09-04T22:35:15.441Z,101488.83
2018-09-04T22:37:44.068Z,101480.84
2018-09-04T22:40:12.794Z,101480.27
2018-09-04T22:42:41.851Z,101481.06
2018-09-04T22:45:10.997Z,101482.17
2018-09-04T22:47:41.113Z,101481.33
2018-09-04T22:50:14.806Z,101479.43
2018-09-04T22:52:43.745Z,101480.79
2018-09-04T22:55:13.716Z,101477.48
2018-09-04T22:57:43.320Z,101479.95
2018-09-04T23:00:13.871Z,101481.56
2018-09-04T23:02:42.673Z,101474.92
2018-09-04T23:05:11.623Z,101476.83
2018-09-04T23:07:40.334Z,101480.61
2018-09-04T23:10:09.164Z,101467.95
2018-09-04T23:12:37.912Z,101466.03
2018-09-04T23:15:06.722Z,101467.33
2018-09-04T23:17:35.585Z,101470.34
2018-09-04T23:20:04.269Z,101476.33
2018-09-04T23:22:32.916Z,101478.45
2018-09-04T23:25:01.536Z,101468.00
2018-09-04T23:27:30.434Z,101476.20
2018-09-04T23:29:59.041Z,101457.58
2018-09-04T23:32:27.977Z,101464.93
2018-09-04T23:34:56.944Z,101463.56
2018-09-04T23:37:25.559Z,101467.29
2018-09-04T23:39:54.157Z,101471.10
2018-09-04T23:42:22.777Z,101467.84
2018-09-04T23:44:51.549Z,101469.72
2018-09-04T23:47:20.206Z,101468.91
2018-09-04T23:49:48.820Z,101468.00
2018-09-04T23:52:17.481Z,101467.39
2018-09-04T23:54:46.301Z,101466.61
2018-09-04T23:57:14.987Z,101473.14
2018-09-04T23:59:43.666Z,101471.50
